createdAt,value
2023-01-15T00:02:09.042Z,3.23
2023-01-15T00:04:35.932Z,3.27
2023-01-15T00:07:03.923Z,3.28
2023-01-15T00:09:30.754Z,3.29
2023-01-15T00:11:57.459Z,3.30
2023-01-15T00:14:24.187Z,3.27
2023-01-15T00:16:51.999Z,3.24
2023-01-15T00:19:18.949Z,3.17
2023-01-15T00:21:45.951Z,3.07
2023-01-15T00:24:31.518Z,3.00
2023-01-15T00:27:16.938Z,2.97
2023-01-15T00:29:46.722Z,2.89
2023-01-15T00:32:14.173Z,2.84
2023-01-15T00:34:42.131Z,2.82
2023-01-15T00:37:08.866Z,2.82
2023-01-15T00:39:36.734Z,2.83
2023-01-15T00:42:04.026Z,2.87
2023-01-15T00:44:33.332Z,2.92
2023-01-15T00:47:00.220Z,2.97
2023-01-15T00:49:26.948Z,3.00
2023-01-15T00:51:55.240Z,3.03
2023-01-15T00:54:22.048Z,3.05
2023-01-15T00:56:48.796Z,3.08
2023-01-15T00:59:15.580Z,3.08
2023-01-15T01:01:43.106Z,3.06
2023-01-15T01:04:10.587Z,3.05
2023-01-15T01:06:37.595Z,3.06
2023-01-15T01:09:04.649Z,3.06
2023-01-15T01:11:33.777Z,3.04
2023-01-15T01:14:00.869Z,3.07
2023-01-15T01:16:37.064Z,3.09
2023-01-15T01:19:09.599Z,3.07
2023-01-15T01:21:37.419Z,3.03
2023-01-15T01:24:05.241Z,3.03
2023-01-15T01:26:33.710Z,3.02
2023-01-15T01:29:00.671Z,3.01
2023-01-15T01:31:27.513Z,3.00
2023-01-15T01:33:55.814Z,2.99
2023-01-15T01:36:30.544Z,3.02
2023-01-15T01:38:58.680Z,3.02
2023-01-15T01:41:25.596Z,3.03
2023-01-15T01:44:02.166Z,3.03
2023-01-15T01:46:31.043Z,3.01
2023-01-15T01:49:08.962Z,2.99
2023-01-15T01:51:42.941Z,2.98
2023-01-15T01:54:10.205Z,2.99
2023-01-15T01:56:37.165Z,3.03
2023-01-15T01:59:04.159Z,3.04
2023-01-15T02:01:31.450Z,3.02
2023-01-15T02:03:58.482Z,3.02
2023-01-15T02:06:25.638Z,3.05
2023-01-15T02:08:52.524Z,3.06
2023-01-15T02:11:21.795Z,3.04
2023-01-15T02:13:51.866Z,3.03
2023-01-15T02:16:24.752Z,3.04
2023-01-15T02:19:46.193Z,3.05
2023-01-15T02:22:20.948Z,3.03
2023-01-15T02:25:07.763Z,3.03
2023-01-15T02:39:17.415Z,3.07
2023-01-15T02:41:47.243Z,3.50
2023-01-15T02:44:16.256Z,3.50
2023-01-15T02:46:43.031Z,3.48
2023-01-15T02:49:13.567Z,3.44
2023-01-15T02:51:45.562Z,3.40
2023-01-15T02:54:13.915Z,3.35
2023-01-15T02:56:41.718Z,3.29
2023-01-15T02:59:11.865Z,3.26
2023-01-15T03:01:52.445Z,3.24
2023-01-15T03:04:26.827Z,3.24
2023-01-15T03:07:08.368Z,3.32
2023-01-15T03:09:36.699Z,3.24
2023-01-15T03:12:09.500Z,3.13
2023-01-15T03:14:51.724Z,3.09
2023-01-15T03:17:47.709Z,3.09
2023-01-15T03:20:23.863Z,3.09
2023-01-15T03:22:53.330Z,3.10
2023-01-15T03:25:29.350Z,3.11
2023-01-15T03:27:59.458Z,3.08
2023-01-15T03:30:26.949Z,3.04
2023-01-15T03:32:55.003Z,2.99
2023-01-15T03:35:57.087Z,2.93
2023-01-15T03:38:30.609Z,2.86
2023-01-15T03:41:17.691Z,2.84
2023-01-15T03:44:22.680Z,2.83
2023-01-15T03:47:02.068Z,2.78
2023-01-15T03:50:00.751Z,2.72
2023-01-15T03:52:50.558Z,2.59
2023-01-15T03:55:29.979Z,2.59
2023-01-15T03:58:15.062Z,2.56
2023-01-15T04:12:00.658Z,2.67
2023-01-15T04:14:31.514Z,2.92
2023-01-15T04:16:59.814Z,2.88
2023-01-15T04:19:26.834Z,2.80
2023-01-15T04:22:00.132Z,2.79
2023-01-15T04:24:27.278Z,2.82
2023-01-15T04:26:54.330Z,2.79
2023-01-15T04:29:21.583Z,2.74
2023-01-15T04:31:48.751Z,2.70
2023-01-15T04:34:15.865Z,2.75
2023-01-15T04:36:46.753Z,2.76
2023-01-15T04:39:13.842Z,2.73
2023-01-15T04:41:59.435Z,2.74
2023-01-15T04:44:28.864Z,2.74
2023-01-15T04:46:57.592Z,2.70
2023-01-15T04:49:24.634Z,2.70
2023-01-15T04:51:51.709Z,2.69
2023-01-15T04:54:19.113Z,2.68
2023-01-15T04:56:47.480Z,2.68
2023-01-15T04:59:15.362Z,2.71
2023-01-15T05:01:51.368Z,2.72
2023-01-15T05:04:22.174Z,2.71
2023-01-15T05:06:49.347Z,2.71
2023-01-15T05:09:16.589Z,2.71
2023-01-15T05:11:43.646Z,2.73
2023-01-15T05:14:10.579Z,2.75
2023-01-15T05:16:38.702Z,2.75
2023-01-15T05:19:08.167Z,2.73
2023-01-15T05:21:36.837Z,2.71
2023-01-15T05:24:05.234Z,2.69
2023-01-15T05:26:33.556Z,2.67
2023-01-15T05:29:00.703Z,2.68
2023-01-15T05:31:28.056Z,2.68
2023-01-15T05:33:55.397Z,2.71
2023-01-15T05:36:24.406Z,2.73
2023-01-15T05:38:52.528Z,2.75
2023-01-15T05:41:38.750Z,2.76
2023-01-15T05:44:08.073Z,2.76
2023-01-15T05:46:35.665Z,2.78
2023-01-15T05:49:04.926Z,2.77
2023-01-15T05:51:31.901Z,2.78
2023-01-15T05:53:58.872Z,2.80
2023-01-15T05:56:26.164Z,2.80
2023-01-15T05:58:53.313Z,2.78
2023-01-15T06:01:20.852Z,2.75
2023-01-15T06:03:48.634Z,2.74
2023-01-15T06:06:17.849Z,2.74
2023-01-15T06:08:45.383Z,2.74
2023-01-15T06:11:12.567Z,2.74
2023-01-15T06:13:39.829Z,2.71
2023-01-15T06:16:07.635Z,2.72
2023-01-15T06:18:35.745Z,2.75
2023-01-15T06:21:04.219Z,2.77
2023-01-15T06:23:31.700Z,2.78
2023-01-15T06:26:02.359Z,2.78
2023-01-15T06:28:29.371Z,2.78
2023-01-15T06:30:56.389Z,2.78
2023-01-15T06:33:23.488Z,2.78
2023-01-15T06:35:50.488Z,2.81
2023-01-15T06:38:17.490Z,2.87
2023-01-15T06:40:44.495Z,2.88
2023-01-15T06:43:30.180Z,2.88
2023-01-15T06:46:26.271Z,2.90
2023-01-15T06:48:54.061Z,2.89
2023-01-15T06:51:21.929Z,2.89
2023-01-15T06:53:48.911Z,2.89
2023-01-15T06:56:15.921Z,2.88
2023-01-15T06:58:43.612Z,2.88
2023-01-15T07:01:15.268Z,2.90
2023-01-15T07:03:42.549Z,2.94
2023-01-15T07:06:10.924Z,2.94
2023-01-15T07:08:38.065Z,2.95
2023-01-15T07:11:09.328Z,2.95
2023-01-15T07:13:36.281Z,2.98
2023-01-15T07:16:03.517Z,3.01
2023-01-15T07:18:31.518Z,3.05
2023-01-15T07:20:58.514Z,3.09
2023-01-15T07:23:26.062Z,3.11
2023-01-15T07:25:53.604Z,3.14
2023-01-15T07:28:21.389Z,3.14
2023-01-15T07:30:48.320Z,3.14
2023-01-15T07:33:15.400Z,3.15
2023-01-15T07:35:42.544Z,3.17
2023-01-15T07:38:09.573Z,3.17
2023-01-15T07:40:37.132Z,3.19
2023-01-15T07:43:22.819Z,3.21
2023-01-15T07:46:08.483Z,3.25
2023-01-15T07:48:54.353Z,3.29
2023-01-15T07:51:21.386Z,3.32
2023-01-15T07:53:48.396Z,3.35
2023-01-15T07:56:15.452Z,3.39
2023-01-15T07:58:42.502Z,3.42
2023-01-15T08:01:09.592Z,3.46
2023-01-15T08:03:36.614Z,3.48
2023-01-15T08:06:03.760Z,3.50
2023-01-15T08:08:30.763Z,3.52
2023-01-15T08:11:20.309Z,3.57
2023-01-15T08:14:06.007Z,3.59
2023-01-15T08:16:36.091Z,3.61
2023-01-15T08:19:03.749Z,3.63
2023-01-15T08:21:30.799Z,3.65
2023-01-15T08:23:57.776Z,3.69
2023-01-15T08:26:24.803Z,3.74
2023-01-15T08:28:51.778Z,3.78
2023-01-15T08:31:18.722Z,3.80
2023-01-15T08:33:45.737Z,3.83
2023-01-15T08:36:12.688Z,3.86
2023-01-15T08:38:39.632Z,3.88
2023-01-15T08:41:06.650Z,3.89
2023-01-15T08:43:33.667Z,3.88
2023-01-15T08:46:01.638Z,3.89
2023-01-15T08:48:29.505Z,3.88
2023-01-15T08:50:56.555Z,3.89
2023-01-15T08:53:24.547Z,3.90
2023-01-15T08:55:51.570Z,3.88
2023-01-15T08:58:18.627Z,3.90
2023-01-15T09:00:45.669Z,3.90
2023-01-15T09:03:12.748Z,3.91
2023-01-15T09:05:39.703Z,3.93
2023-01-15T09:08:07.191Z,3.97
2023-01-15T09:10:34.880Z,4.03
2023-01-15T09:13:03.673Z,4.06
2023-01-15T09:15:31.513Z,4.07
2023-01-15T09:17:58.596Z,4.10
2023-01-15T09:20:25.658Z,4.14
2023-01-15T09:22:52.711Z,4.13
2023-01-15T09:25:20.366Z,4.15
2023-01-15T09:27:49.182Z,4.19
2023-01-15T09:30:20.860Z,4.24
2023-01-15T09:32:48.274Z,4.27
2023-01-15T09:35:15.605Z,4.28
2023-01-15T09:37:42.591Z,4.27
2023-01-15T09:40:24.327Z,4.31
2023-01-15T09:43:00.592Z,4.37
2023-01-15T09:45:47.507Z,4.41
2023-01-15T09:48:30.008Z,4.43
2023-01-15T09:51:02.899Z,4.43
2023-01-15T09:53:43.088Z,4.47
2023-01-15T09:56:25.699Z,4.47
2023-01-15T09:58:52.681Z,4.44
2023-01-15T10:01:30.098Z,4.42
2023-01-15T10:04:12.663Z,4.43
2023-01-15T10:06:44.064Z,4.47
2023-01-15T10:09:13.149Z,4.49
2023-01-15T10:12:08.158Z,4.49
2023-01-15T10:14:39.815Z,4.48
2023-01-15T10:17:18.545Z,4.48
2023-01-15T10:19:45.610Z,4.52
2023-01-15T10:22:19.903Z,4.55
2023-01-15T10:24:53.305Z,4.56
2023-01-15T10:27:22.316Z,4.58
2023-01-15T10:29:58.691Z,4.60
2023-01-15T10:33:00.970Z,4.61
2023-01-15T10:35:34.355Z,4.60
2023-01-15T10:38:07.639Z,4.59
2023-01-15T10:40:46.970Z,4.58
2023-01-15T10:43:51.396Z,4.53
2023-01-15T10:46:20.275Z,4.53
2023-01-15T10:48:57.422Z,4.47
2023-01-15T10:51:25.348Z,4.44
2023-01-15T10:54:12.874Z,4.46
2023-01-15T10:56:52.517Z,4.51
2023-01-15T10:59:31.856Z,4.53
2023-01-15T11:01:59.144Z,4.49
2023-01-15T11:04:28.360Z,4.40
2023-01-15T11:06:55.461Z,4.37
2023-01-15T11:09:24.586Z,4.33
2023-01-15T11:11:57.707Z,4.30
2023-01-15T11:15:01.047Z,4.27
2023-01-15T11:17:57.489Z,4.22
2023-01-15T11:20:32.153Z,4.23
2023-01-15T11:23:16.467Z,4.22
2023-01-15T11:25:54.269Z,4.20
2023-01-15T11:28:35.756Z,4.19
2023-01-15T11:31:03.192Z,4.21
2023-01-15T11:33:32.301Z,4.24
2023-01-15T11:36:01.417Z,4.27
2023-01-15T11:38:30.825Z,4.33
2023-01-15T11:41:00.568Z,4.35
2023-01-15T11:43:48.319Z,4.38
2023-01-15T11:46:47.857Z,4.42
2023-01-15T11:49:38.581Z,4.40
2023-01-15T11:52:16.697Z,4.35
2023-01-15T12:06:37.190Z,4.47
2023-01-15T12:09:16.783Z,4.71
2023-01-15T12:11:55.820Z,4.66
2023-01-15T12:14:53.515Z,4.65
2023-01-15T12:18:03.319Z,4.61
2023-01-15T12:21:04.395Z,4.48
2023-01-15T12:23:33.920Z,4.34
2023-01-15T12:26:26.955Z,4.28
2023-01-15T12:29:06.509Z,4.23
2023-01-15T12:31:47.204Z,4.15
2023-01-15T12:34:19.188Z,4.11
2023-01-15T12:36:52.102Z,4.08
2023-01-15T12:39:29.448Z,4.06
2023-01-15T12:42:20.803Z,4.05
2023-01-15T12:45:03.942Z,4.02
2023-01-15T12:48:10.773Z,4.00
2023-01-15T12:50:37.582Z,4.01
2023-01-15T12:53:10.854Z,4.04
2023-01-15T12:55:53.731Z,4.06
2023-01-15T12:58:26.370Z,4.04
2023-01-15T13:00:57.952Z,4.00
2023-01-15T13:03:29.677Z,3.93
2023-01-15T13:05:59.639Z,3.89
2023-01-15T13:08:37.114Z,3.88
2023-01-15T13:11:04.356Z,3.89
2023-01-15T13:13:34.214Z,3.88
2023-01-15T13:16:19.597Z,3.89
2023-01-15T13:19:07.996Z,3.88
2023-01-15T13:21:35.553Z,3.84
2023-01-15T13:24:18.095Z,3.80
2023-01-15T13:26:51.446Z,3.77
2023-01-15T13:29:24.176Z,3.76
2023-01-15T13:31:58.325Z,3.71
2023-01-15T13:34:34.725Z,3.67
2023-01-15T13:37:12.300Z,3.58
2023-01-15T13:39:41.341Z,3.49
2023-01-15T13:42:32.703Z,3.45
2023-01-15T13:45:27.373Z,3.43
2023-01-15T13:48:02.333Z,3.39
2023-01-15T13:50:31.408Z,3.39
2023-01-15T13:53:08.948Z,3.42
2023-01-15T13:55:37.940Z,3.43
2023-01-15T13:58:35.764Z,3.42
2023-01-15T14:01:21.983Z,3.40
2023-01-15T14:04:11.818Z,3.38
2023-01-15T14:06:46.949Z,3.35
2023-01-15T14:09:17.793Z,3.35
2023-01-15T14:12:03.894Z,3.33
2023-01-15T14:14:43.199Z,3.31
2023-01-15T14:17:34.738Z,3.30
2023-01-15T14:20:23.474Z,3.31
2023-01-15T14:23:03.547Z,3.34
2023-01-15T14:25:33.319Z,3.33
2023-01-15T14:28:06.625Z,3.32
2023-01-15T14:30:50.206Z,3.31
2023-01-15T14:33:24.429Z,3.32
2023-01-15T14:35:51.630Z,3.32
2023-01-15T14:38:20.107Z,3.34
2023-01-15T14:41:04.732Z,3.34
2023-01-15T14:43:33.477Z,3.32
2023-01-15T14:46:24.463Z,3.28
2023-01-15T14:48:51.248Z,3.28
2023-01-15T14:51:23.475Z,3.29
2023-01-15T14:53:57.930Z,3.28
2023-01-15T14:56:29.168Z,3.28
2023-01-15T14:59:00.970Z,3.29
2023-01-15T15:01:46.895Z,3.32
2023-01-15T15:04:19.949Z,3.32
2023-01-15T15:07:04.924Z,3.35
2023-01-15T15:09:57.990Z,3.38
2023-01-15T15:12:48.105Z,3.34
2023-01-15T15:15:19.320Z,3.28
2023-01-15T15:17:57.834Z,3.24
2023-01-15T15:20:33.634Z,3.23
2023-01-15T15:23:09.857Z,3.24
2023-01-15T15:25:39.505Z,3.28
2023-01-15T15:28:10.115Z,3.29
2023-01-15T15:30:41.279Z,3.32
2023-01-15T15:33:12.708Z,3.35
2023-01-15T15:35:40.012Z,3.37
2023-01-15T15:38:06.953Z,3.39
2023-01-15T15:40:35.097Z,3.38
2023-01-15T15:43:46.249Z,3.36
2023-01-15T15:46:47.766Z,3.34
2023-01-15T15:49:14.695Z,3.29
2023-01-15T15:51:45.553Z,3.26
2023-01-15T15:54:16.177Z,3.23
2023-01-15T15:57:02.406Z,3.21
2023-01-15T15:59:30.543Z,3.17
2023-01-15T16:01:59.132Z,3.14
2023-01-15T16:04:26.531Z,3.12
2023-01-15T16:06:53.447Z,3.09
2023-01-15T16:09:21.962Z,3.06
2023-01-15T16:11:50.302Z,3.05
2023-01-15T16:14:17.234Z,3.04
2023-01-15T16:16:44.137Z,3.06
2023-01-15T16:19:15.689Z,3.10
2023-01-15T16:21:43.926Z,3.11
2023-01-15T16:24:27.650Z,3.09
2023-01-15T16:26:59.043Z,3.09
2023-01-15T16:29:28.139Z,3.09
2023-01-15T16:31:56.408Z,3.10
2023-01-15T16:34:31.382Z,3.11
2023-01-15T16:36:58.880Z,3.12
2023-01-15T16:39:44.908Z,3.13
2023-01-15T16:42:24.635Z,3.17
2023-01-15T16:44:54.203Z,3.22
2023-01-15T16:47:41.200Z,3.24
2023-01-15T16:50:23.776Z,3.24
2023-01-15T16:52:55.280Z,3.23
2023-01-15T16:55:34.271Z,3.20
2023-01-15T16:58:14.187Z,3.16
2023-01-15T17:00:46.050Z,3.11
2023-01-15T17:03:20.838Z,3.09
2023-01-15T17:05:53.263Z,3.09
2023-01-15T17:08:47.021Z,3.09
2023-01-15T17:11:29.292Z,3.07
2023-01-15T17:14:20.598Z,3.04
2023-01-15T17:16:48.103Z,3.01
2023-01-15T17:19:15.679Z,3.01
2023-01-15T17:21:46.678Z,3.01
2023-01-15T17:24:13.527Z,3.00
2023-01-15T17:26:40.504Z,2.98
2023-01-15T17:29:08.910Z,2.98
2023-01-15T17:31:36.061Z,3.00
2023-01-15T17:34:03.481Z,3.00
2023-01-15T17:36:30.624Z,3.00
2023-01-15T17:38:57.493Z,3.01
2023-01-15T17:41:24.564Z,3.01
2023-01-15T17:43:52.324Z,3.00
2023-01-15T17:46:19.454Z,2.99
2023-01-15T18:06:53.325Z,2.58
2023-01-15T18:09:21.562Z,3.24
2023-01-15T18:11:50.237Z,3.19
2023-01-15T18:14:17.916Z,3.16
2023-01-15T18:16:44.969Z,3.10
2023-01-15T18:19:12.636Z,3.03
2023-01-15T18:21:40.240Z,2.98
2023-01-15T18:24:09.046Z,2.93
2023-01-15T18:26:37.912Z,2.88
2023-01-15T18:29:05.932Z,2.84
2023-01-15T18:31:33.625Z,2.83
2023-01-15T18:34:00.463Z,2.80
2023-01-15T18:36:30.367Z,2.77
2023-01-15T18:39:02.376Z,2.75
2023-01-15T18:41:36.612Z,2.71
2023-01-15T18:55:07.271Z,2.82
2023-01-15T18:57:34.423Z,3.13
2023-01-15T19:00:01.573Z,3.08
2023-01-15T19:02:29.363Z,3.03
2023-01-15T19:04:56.809Z,3.01
2023-01-15T19:07:23.823Z,3.00
2023-01-15T19:09:51.482Z,2.97
2023-01-15T19:12:19.974Z,2.95
2023-01-15T19:15:05.658Z,2.94
2023-01-15T19:17:51.301Z,2.92
2023-01-15T19:20:19.005Z,2.97
2023-01-15T19:23:05.179Z,2.90
2023-01-15T19:25:41.298Z,2.81
2023-01-15T19:28:10.348Z,2.77
2023-01-15T19:30:38.619Z,2.72
2023-01-15T19:33:06.601Z,2.70
2023-01-15T19:35:35.355Z,2.71
2023-01-15T19:38:03.044Z,2.72
2023-01-15T19:40:31.878Z,2.73
2023-01-15T19:43:17.892Z,2.73
2023-01-15T19:46:06.690Z,2.72
2023-01-15T19:48:52.690Z,2.70
